sensor_id;sensor_type;location;lat;lon;timestamp;pressure;altitude;pressure_sealevel;temperature;humidity
23433;BME280;41331;45.412;10.992;2023-05-27T00:00:09;101165.06;;;22.82;67.00
23433;BME280;41331;45.412;10.992;2023-05-27T00:02:38;101186.03;;;22.69;67.44
23433;BME280;41331;45.412;10.992;2023-05-27T00:05:05;101187.63;;;22.63;68.08
23433;BME280;41331;45.412;10.992;2023-05-27T00:07:33;101187.66;;;22.66;68.46
23433;BME280;41331;45.412;10.992;2023-05-27T00:10:00;101201.88;;;22.58;69.54
23433;BME280;41331;45.412;10.992;2023-05-27T00:12:28;101211.78;;;22.52;71.17
23433;BME280;41331;45.412;10.992;2023-05-27T00:14:55;101210.94;;;22.37;73.73
23433;BME280;41331;45.412;10.992;2023-05-27T00:17:24;101224.78;;;22.30;75.53
23433;BME280;41331;45.412;10.992;2023-05-27T00:19:52;101223.22;;;22.43;75.59
23433;BME280;41331;45.412;10.992;2023-05-27T00:22:21;101233.94;;;22.41;76.09
23433;BME280;41331;45.412;10.992;2023-05-27T00:24:50;101224.81;;;22.40;77.12
23433;BME280;41331;45.412;10.992;2023-05-27T00:27:17;101228.34;;;22.30;78.39
23433;BME280;41331;45.412;10.992;2023-05-27T00:29:45;101236.66;;;22.34;78.40
23433;BME280;41331;45.412;10.992;2023-05-27T00:32:12;101240.97;;;22.28;78.04
23433;BME280;41331;45.412;10.992;2023-05-27T00:34:39;101228.72;;;22.25;77.85
23433;BME280;41331;45.412;10.992;2023-05-27T00:37:07;101237.78;;;22.15;76.49
23433;BME280;41331;45.412;10.992;2023-05-27T00:39:35;101248.78;;;22.04;75.43
23433;BME280;41331;45.412;10.992;2023-05-27T00:42:02;101243.16;;;21.97;75.55
23433;BME280;41331;45.412;10.992;2023-05-27T00:44:31;101253.44;;;21.93;75.95
23433;BME280;41331;45.412;10.992;2023-05-27T00:46:59;101257.44;;;21.99;75.73
23433;BME280;41331;45.412;10.992;2023-05-27T00:49:27;101259.34;;;21.84;73.93
23433;BME280;41331;45.412;10.992;2023-05-27T00:51:55;101257.31;;;21.81;71.89
23433;BME280;41331;45.412;10.992;2023-05-27T00:54:23;101254.13;;;21.76;72.19
23433;BME280;41331;45.412;10.992;2023-05-27T00:56:52;101260.44;;;21.76;70.29
23433;BME280;41331;45.412;10.992;2023-05-27T00:59:20;101261.75;;;21.89;69.63
23433;BME280;41331;45.412;10.992;2023-05-27T01:01:47;101269.16;;;21.75;70.37
23433;BME280;41331;45.412;10.992;2023-05-27T01:04:16;101275.84;;;21.70;70.51
23433;BME280;41331;45.412;10.992;2023-05-27T01:09:48;101278.69;;;21.81;71.79
23433;BME280;41331;45.412;10.992;2023-05-27T01:15:09;101266.34;;;21.71;75.12
23433;BME280;41331;45.412;10.992;2023-05-27T01:17:38;101270.78;;;21.79;74.92
23433;BME280;41331;45.412;10.992;2023-05-27T01:20:10;101281.31;;;21.59;74.78
23433;BME280;41331;45.412;10.992;2023-05-27T01:22:39;101273.88;;;21.70;73.78
23433;BME280;41331;45.412;10.992;2023-05-27T01:25:09;101277.63;;;21.44;73.65
23433;BME280;41331;45.412;10.992;2023-05-27T01:27:38;101264.91;;;21.40;73.77
23433;BME280;41331;45.412;10.992;2023-05-27T01:30:08;101263.31;;;21.39;75.15
23433;BME280;41331;45.412;10.992;2023-05-27T01:32:55;101251.91;;;21.07;78.36
23433;BME280;41331;45.412;10.992;2023-05-27T01:35:43;101253.22;;;20.83;81.95
23433;BME280;41331;45.412;10.992;2023-05-27T01:38:16;101257.09;;;20.75;85.27
23433;BME280;41331;45.412;10.992;2023-05-27T01:40:46;101256.72;;;20.76;85.86
23433;BME280;41331;45.412;10.992;2023-05-27T01:43:15;101266.44;;;20.63;89.33
23433;BME280;41331;45.412;10.992;2023-05-27T01:45:43;101259.88;;;20.44;90.96
23433;BME280;41331;45.412;10.992;2023-05-27T01:48:10;101263.97;;;20.28;91.87
23433;BME280;41331;45.412;10.992;2023-05-27T01:50:38;101262.16;;;20.09;94.90
23433;BME280;41331;45.412;10.992;2023-05-27T01:53:06;101275.75;;;19.95;98.62
23433;BME280;41331;45.412;10.992;2023-05-27T01:55:33;101280.84;;;19.92;100.00
23433;BME280;41331;45.412;10.992;2023-05-27T01:58:01;101289.44;;;19.87;100.00
23433;BME280;41331;45.412;10.992;2023-05-27T02:00:29;101287.97;;;19.94;100.00
23433;BME280;41331;45.412;10.992;2023-05-27T02:02:57;101289.72;;;19.79;100.00
23433;BME280;41331;45.412;10.992;2023-05-27T02:05:26;101291.84;;;19.89;100.00
23433;BME280;41331;45.412;10.992;2023-05-27T02:07:54;101288.56;;;19.80;100.00
23433;BME280;41331;45.412;10.992;2023-05-27T02:10:25;101291.72;;;19.59;100.00
23433;BME280;41331;45.412;10.992;2023-05-27T02:12:52;101294.22;;;19.64;100.00
23433;BME280;41331;45.412;10.992;2023-05-27T02:15:20;101300.94;;;19.66;100.00
23433;BME280;41331;45.412;10.992;2023-05-27T02:17:54;101300.22;;;19.70;100.00
23433;BME280;41331;45.412;10.992;2023-05-27T02:20:23;101308.28;;;19.82;100.00
23433;BME280;41331;45.412;10.992;2023-05-27T02:22:51;101308.13;;;19.71;100.00
23433;BME280;41331;45.412;10.992;2023-05-27T02:25:19;101308.31;;;19.59;100.00
23433;BME280;41331;45.412;10.992;2023-05-27T02:27:46;101304.56;;;19.71;100.00
23433;BME280;41331;45.412;10.992;2023-05-27T02:30:15;101319.31;;;19.78;100.00
23433;BME280;41331;45.412;10.992;2023-05-27T02:32:44;101325.00;;;19.66;100.00
23433;BME280;41331;45.412;10.992;2023-05-27T02:35:13;101336.25;;;19.57;100.00
23433;BME280;41331;45.412;10.992;2023-05-27T02:37:44;101345.44;;;19.61;100.00
23433;BME280;41331;45.412;10.992;2023-05-27T02:40:12;101348.66;;;19.63;100.00
23433;BME280;41331;45.412;10.992;2023-05-27T02:42:49;101359.44;;;19.53;100.00
23433;BME280;41331;45.412;10.992;2023-05-27T02:45:17;101364.84;;;19.46;100.00
23433;BME280;41331;45.412;10.992;2023-05-27T02:47:45;101365.31;;;19.71;100.00
23433;BME280;41331;45.412;10.992;2023-05-27T02:50:12;101358.28;;;19.73;100.00
23433;BME280;41331;45.412;10.992;2023-05-27T02:52:39;101360.94;;;19.92;100.00
23433;BME280;41331;45.412;10.992;2023-05-27T02:55:08;101347.53;;;19.91;100.00
23433;BME280;41331;45.412;10.992;2023-05-27T02:57:36;101360.03;;;19.62;100.00
23433;BME280;41331;45.412;10.992;2023-05-27T03:00:04;101353.84;;;19.26;100.00
23433;BME280;41331;45.412;10.992;2023-05-27T03:02:33;101363.78;;;19.11;100.00
23433;BME280;41331;45.412;10.992;2023-05-27T03:05:00;101363.06;;;18.95;100.00
23433;BME280;41331;45.412;10.992;2023-05-27T03:07:28;101353.34;;;18.82;100.00
23433;BME280;41331;45.412;10.992;2023-05-27T03:09:58;101357.84;;;18.90;100.00
23433;BME280;41331;45.412;10.992;2023-05-27T03:12:25;101349.56;;;18.90;100.00
23433;BME280;41331;45.412;10.992;2023-05-27T03:14:53;101358.19;;;18.69;100.00
23433;BME280;41331;45.412;10.992;2023-05-27T03:17:20;101355.91;;;18.55;100.00
23433;BME280;41331;45.412;10.992;2023-05-27T03:19:50;101362.53;;;18.35;100.00
23433;BME280;41331;45.412;10.992;2023-05-27T03:22:18;101364.41;;;18.31;100.00
23433;BME280;41331;45.412;10.992;2023-05-27T03:24:45;101353.56;;;18.22;100.00
23433;BME280;41331;45.412;10.992;2023-05-27T03:27:14;101346.97;;;18.27;100.00
23433;BME280;41331;45.412;10.992;2023-05-27T03:29:44;101343.88;;;18.28;100.00
23433;BME280;41331;45.412;10.992;2023-05-27T03:32:13;101336.66;;;18.40;100.00
23433;BME280;41331;45.412;10.992;2023-05-27T03:34:43;101330.91;;;18.29;100.00
23433;BME280;41331;45.412;10.992;2023-05-27T03:37:10;101328.41;;;18.24;100.00
23433;BME280;41331;45.412;10.992;2023-05-27T03:39:47;101331.00;;;18.32;100.00
23433;BME280;41331;45.412;10.992;2023-05-27T03:42:15;101338.00;;;18.30;100.00
23433;BME280;41331;45.412;10.992;2023-05-27T03:44:43;101327.22;;;18.41;100.00
23433;BME280;41331;45.412;10.992;2023-05-27T03:47:10;101319.59;;;18.34;100.00
23433;BME280;41331;45.412;10.992;2023-05-27T03:49:38;101319.13;;;18.32;100.00
23433;BME280;41331;45.412;10.992;2023-05-27T03:52:08;101311.66;;;18.13;100.00
23433;BME280;41331;45.412;10.992;2023-05-27T03:54:35;101304.47;;;18.08;100.00
23433;BME280;41331;45.412;10.992;2023-05-27T03:57:03;101315.19;;;18.14;100.00
23433;BME280;41331;45.412;10.992;2023-05-27T03:59:30;101299.84;;;18.13;100.00
23433;BME280;41331;45.412;10.992;2023-05-27T04:01:58;101304.13;;;18.29;100.00
23433;BME280;41331;45.412;10.992;2023-05-27T04:04:26;101309.41;;;18.19;100.00
23433;BME280;41331;45.412;10.992;2023-05-27T04:06:53;101307.31;;;18.31;100.00
23433;BME280;41331;45.412;10.992;2023-05-27T04:09:22;101303.22;;;18.41;100.00
23433;BME280;41331;45.412;10.992;2023-05-27T04:11:50;101299.41;;;18.30;100.00
23433;BME280;41331;45.412;10.992;2023-05-27T04:14:17;101290.06;;;18.34;100.00
23433;BME280;41331;45.412;10.992;2023-05-27T04:16:44;101288.81;;;18.32;100.00
23433;BME280;41331;45.412;10.992;2023-05-27T04:19:12;101285.44;;;18.38;100.00
23433;BME280;41331;45.412;10.992;2023-05-27T04:21:41;101283.44;;;18.55;100.00
23433;BME280;41331;45.412;10.992;2023-05-27T04:24:09;101280.09;;;18.65;100.00
23433;BME280;41331;45.412;10.992;2023-05-27T04:26:36;101279.81;;;18.89;100.00
23433;BME280;41331;45.412;10.992;2023-05-27T04:29:04;101281.78;;;18.70;100.00
23433;BME280;41331;45.412;10.992;2023-05-27T04:31:38;101279.66;;;18.82;100.00
23433;BME280;41331;45.412;10.992;2023-05-27T04:34:11;101272.72;;;18.88;100.00
23433;BME280;41331;45.412;10.992;2023-05-27T04:36:40;101274.13;;;19.02;100.00
23433;BME280;41331;45.412;10.992;2023-05-27T04:39:10;101287.94;;;19.02;100.00
23433;BME280;41331;45.412;10.992;2023-05-27T04:41:42;101287.22;;;18.85;100.00
23433;BME280;41331;45.412;10.992;2023-05-27T04:44:30;101296.50;;;18.77;100.00
23433;BME280;41331;45.412;10.992;2023-05-27T04:46:59;101286.34;;;18.81;100.00
23433;BME280;41331;45.412;10.992;2023-05-27T04:49:27;101295.88;;;18.84;100.00
23433;BME280;41331;45.412;10.992;2023-05-27T04:51:55;101298.66;;;19.07;100.00
23433;BME280;41331;45.412;10.992;2023-05-27T04:54:23;101295.06;;;19.03;100.00
23433;BME280;41331;45.412;10.992;2023-05-27T04:56:50;101292.66;;;19.01;100.00
23433;BME280;41331;45.412;10.992;2023-05-27T04:59:25;101295.06;;;19.03;100.00
23433;BME280;41331;45.412;10.992;2023-05-27T05:02:14;101296.09;;;19.18;100.00
23433;BME280;41331;45.412;10.992;2023-05-27T05:05:02;101298.63;;;19.26;100.00
23433;BME280;41331;45.412;10.992;2023-05-27T05:07:30;101295.69;;;19.15;100.00
23433;BME280;41331;45.412;10.992;2023-05-27T05:09:58;101305.34;;;19.48;100.00
23433;BME280;41331;45.412;10.992;2023-05-27T05:12:33;101300.53;;;19.64;100.00
23433;BME280;41331;45.412;10.992;2023-05-27T05:15:01;101303.41;;;19.72;100.00
23433;BME280;41331;45.412;10.992;2023-05-27T05:17:28;101306.13;;;19.68;100.00
23433;BME280;41331;45.412;10.992;2023-05-27T05:19:55;101304.88;;;19.65;100.00
23433;BME280;41331;45.412;10.992;2023-05-27T05:22:24;101300.81;;;19.82;100.00
23433;BME280;41331;45.412;10.992;2023-05-27T05:24:53;101308.03;;;19.64;100.00
23433;BME280;41331;45.412;10.992;2023-05-27T05:27:28;101309.03;;;19.56;100.00
23433;BME280;41331;45.412;10.992;2023-05-27T05:29:56;101313.16;;;19.65;100.00
23433;BME280;41331;45.412;10.992;2023-05-27T05:32:25;101318.28;;;19.63;100.00
23433;BME280;41331;45.412;10.992;2023-05-27T05:34:52;101312.06;;;19.70;100.00
23433;BME280;41331;45.412;10.992;2023-05-27T05:37:21;101313.69;;;19.52;100.00
23433;BME280;41331;45.412;10.992;2023-05-27T05:39:49;101309.34;;;19.51;100.00
23433;BME280;41331;45.412;10.992;2023-05-27T05:42:16;101304.59;;;19.51;100.00
23433;BME280;41331;45.412;10.992;2023-05-27T05:44:44;101314.72;;;19.63;100.00
23433;BME280;41331;45.412;10.992;2023-05-27T05:47:12;101305.38;;;19.71;100.00
23433;BME280;41331;45.412;10.992;2023-05-27T05:49:41;101303.94;;;19.81;100.00
23433;BME280;41331;45.412;10.992;2023-05-27T05:52:11;101309.28;;;19.93;100.00
23433;BME280;41331;45.412;10.992;2023-05-27T05:54:38;101307.34;;;19.97;100.00
23433;BME280;41331;45.412;10.992;2023-05-27T05:57:05;101306.00;;;19.87;100.00
23433;BME280;41331;45.412;10.992;2023-05-27T05:59:33;101299.97;;;20.05;100.00
23433;BME280;41331;45.412;10.992;2023-05-27T06:02:00;101312.22;;;20.04;100.00
23433;BME280;41331;45.412;10.992;2023-05-27T06:04:28;101305.41;;;20.24;100.00
23433;BME280;41331;45.412;10.992;2023-05-27T06:06:55;101306.97;;;20.52;100.00
23433;BME280;41331;45.412;10.992;2023-05-27T06:09:42;101314.47;;;20.81;100.00
23433;BME280;41331;45.412;10.992;2023-05-27T06:12:17;101310.31;;;20.98;100.00
23433;BME280;41331;45.412;10.992;2023-05-27T06:14:46;101315.94;;;21.05;100.00
23433;BME280;41331;45.412;10.992;2023-05-27T06:17:23;101310.19;;;21.21;100.00
23433;BME280;41331;45.412;10.992;2023-05-27T06:19:51;101303.63;;;21.36;100.00
23433;BME280;41331;45.412;10.992;2023-05-27T06:22:18;101294.94;;;21.34;100.00
23433;BME280;41331;45.412;10.992;2023-05-27T06:25:06;101307.94;;;21.30;100.00
23433;BME280;41331;45.412;10.992;2023-05-27T06:27:52;101304.09;;;21.08;100.00
23433;BME280;41331;45.412;10.992;2023-05-27T06:30:23;101314.03;;;21.13;100.00
23433;BME280;41331;45.412;10.992;2023-05-27T06:32:51;101323.41;;;21.01;100.00
23433;BME280;41331;45.412;10.992;2023-05-27T06:35:20;101312.53;;;21.19;100.00
23433;BME280;41331;45.412;10.992;2023-05-27T06:37:48;101307.63;;;21.39;100.00
23433;BME280;41331;45.412;10.992;2023-05-27T06:40:16;101312.00;;;21.43;99.03
23433;BME280;41331;45.412;10.992;2023-05-27T06:42:44;101313.09;;;21.76;99.30
23433;BME280;41331;45.412;10.992;2023-05-27T06:45:30;101301.41;;;21.49;92.18
23433;BME280;41331;45.412;10.992;2023-05-27T06:48:21;101308.13;;;21.52;95.57
23433;BME280;41331;45.412;10.992;2023-05-27T06:50:48;101308.72;;;21.31;98.93
23433;BME280;41331;45.412;10.992;2023-05-27T06:53:17;101305.38;;;21.18;98.92
23433;BME280;41331;45.412;10.992;2023-05-27T06:56:07;101303.53;;;21.29;99.50
23433;BME280;41331;45.412;10.992;2023-05-27T06:58:53;101299.50;;;21.19;98.33
23433;BME280;41331;45.412;10.992;2023-05-27T07:01:21;101298.25;;;21.17;97.03
23433;BME280;41331;45.412;10.992;2023-05-27T07:04:10;101300.91;;;21.40;97.48
23433;BME280;41331;45.412;10.992;2023-05-27T07:06:48;101292.13;;;21.79;95.75
23433;BME280;41331;45.412;10.992;2023-05-27T07:09:16;101300.81;;;21.77;95.30
23433;BME280;41331;45.412;10.992;2023-05-27T07:11:44;101288.50;;;22.22;95.44
23433;BME280;41331;45.412;10.992;2023-05-27T07:14:31;101287.69;;;22.22;89.45
23433;BME280;41331;45.412;10.992;2023-05-27T07:16:59;101291.69;;;22.25;88.46
23433;BME280;41331;45.412;10.992;2023-05-27T07:19:26;101291.47;;;22.62;87.88
23433;BME280;41331;45.412;10.992;2023-05-27T07:21:58;101289.81;;;22.46;83.31
23433;BME280;41331;45.412;10.992;2023-05-27T07:24:26;101293.88;;;22.70;84.55
23433;BME280;41331;45.412;10.992;2023-05-27T07:26:55;101293.81;;;22.56;85.41
23433;BME280;41331;45.412;10.992;2023-05-27T07:29:25;101290.63;;;22.51;86.03
23433;BME280;41331;45.412;10.992;2023-05-27T07:31:53;101293.59;;;22.93;90.90
23433;BME280;41331;45.412;10.992;2023-05-27T07:34:27;101290.50;;;23.48;85.79
23433;BME280;41331;45.412;10.992;2023-05-27T07:36:54;101290.53;;;23.95;81.74
23433;BME280;41331;45.412;10.992;2023-05-27T07:39:25;101292.47;;;24.19;81.95
23433;BME280;41331;45.412;10.992;2023-05-27T07:41:54;101293.16;;;24.66;81.83
23433;BME280;41331;45.412;10.992;2023-05-27T07:44:22;101285.22;;;24.58;74.02
23433;BME280;41331;45.412;10.992;2023-05-27T07:46:52;101280.38;;;24.72;78.52
23433;BME280;41331;45.412;10.992;2023-05-27T07:49:20;101276.63;;;24.02;80.23
23433;BME280;41331;45.412;10.992;2023-05-27T07:51:59;101278.22;;;23.78;79.12
23433;BME280;41331;45.412;10.992;2023-05-27T07:54:27;101269.81;;;24.14;69.74
23433;BME280;41331;45.412;10.992;2023-05-27T07:56:54;101275.28;;;24.60;67.72
23433;BME280;41331;45.412;10.992;2023-05-27T07:59:24;101276.50;;;24.52;72.34
23433;BME280;41331;45.412;10.992;2023-05-27T08:01:52;101273.97;;;24.83;61.25
23433;BME280;41331;45.412;10.992;2023-05-27T08:04:19;101268.31;;;25.00;67.40
23433;BME280;41331;45.412;10.992;2023-05-27T08:06:52;101267.31;;;24.59;54.36
23433;BME280;41331;45.412;10.992;2023-05-27T08:09:39;101268.88;;;24.70;52.93
23433;BME280;41331;45.412;10.992;2023-05-27T08:12:25;101274.75;;;24.87;53.85
23433;BME280;41331;45.412;10.992;2023-05-27T08:15:09;101277.09;;;24.92;56.07
23433;BME280;41331;45.412;10.992;2023-05-27T08:17:42;101263.50;;;25.04;52.74
23433;BME280;41331;45.412;10.992;2023-05-27T08:20:18;101257.84;;;25.19;53.03
23433;BME280;41331;45.412;10.992;2023-05-27T08:22:57;101259.81;;;25.25;57.99
23433;BME280;41331;45.412;10.992;2023-05-27T08:25:47;101254.63;;;25.24;59.41
23433;BME280;41331;45.412;10.992;2023-05-27T08:28:15;101245.88;;;25.25;61.75
23433;BME280;41331;45.412;10.992;2023-05-27T08:30:50;101238.56;;;25.46;58.52
23433;BME280;41331;45.412;10.992;2023-05-27T08:33:22;101242.94;;;25.43;58.85
23433;BME280;41331;45.412;10.992;2023-05-27T08:35:50;101238.91;;;25.51;53.57
23433;BME280;41331;45.412;10.992;2023-05-27T08:38:17;101239.91;;;25.72;55.04
23433;BME280;41331;45.412;10.992;2023-05-27T08:40:45;101236.34;;;25.71;51.98
23433;BME280;41331;45.412;10.992;2023-05-27T08:43:12;101229.91;;;25.81;54.69
23433;BME280;41331;45.412;10.992;2023-05-27T08:45:44;101229.34;;;25.52;51.81
23433;BME280;41331;45.412;10.992;2023-05-27T08:48:12;101234.72;;;25.77;52.92
23433;BME280;41331;45.412;10.992;2023-05-27T08:50:51;101226.47;;;25.60;52.24
23433;BME280;41331;45.412;10.992;2023-05-27T08:53:19;101227.94;;;25.75;54.69
23433;BME280;41331;45.412;10.992;2023-05-27T08:55:50;101230.91;;;25.53;49.73
23433;BME280;41331;45.412;10.992;2023-05-27T08:58:19;101226.00;;;25.68;50.91
23433;BME280;41331;45.412;10.992;2023-05-27T09:00:49;101220.22;;;25.48;53.80
23433;BME280;41331;45.412;10.992;2023-05-27T09:03:19;101226.41;;;26.08;54.89
23433;BME280;41331;45.412;10.992;2023-05-27T09:05:47;101229.44;;;25.87;50.02
23433;BME280;41331;45.412;10.992;2023-05-27T09:08:15;101225.22;;;26.05;50.05
23433;BME280;41331;45.412;10.992;2023-05-27T09:10:42;101231.72;;;25.95;49.11
23433;BME280;41331;45.412;10.992;2023-05-27T09:13:10;101231.88;;;26.19;49.88
23433;BME280;41331;45.412;10.992;2023-05-27T09:15:37;101228.03;;;26.05;50.84
23433;BME280;41331;45.412;10.992;2023-05-27T09:18:06;101236.91;;;25.97;52.10
23433;BME280;41331;45.412;10.992;2023-05-27T09:20:33;101233.03;;;26.21;52.29
23433;BME280;41331;45.412;10.992;2023-05-27T09:23:02;101226.84;;;26.06;51.28
23433;BME280;41331;45.412;10.992;2023-05-27T09:25:30;101219.00;;;26.63;49.64
23433;BME280;41331;45.412;10.992;2023-05-27T09:27:57;101217.84;;;26.26;48.16
23433;BME280;41331;45.412;10.992;2023-05-27T09:30:25;101215.31;;;26.35;52.08
23433;BME280;41331;45.412;10.992;2023-05-27T09:33:00;101211.25;;;26.74;49.82
23433;BME280;41331;45.412;10.992;2023-05-27T09:35:29;101212.97;;;26.64;47.37
23433;BME280;41331;45.412;10.992;2023-05-27T09:38:07;101212.84;;;26.41;47.16
23433;BME280;41331;45.412;10.992;2023-05-27T09:40:36;101209.28;;;26.71;47.73
23433;BME280;41331;45.412;10.992;2023-05-27T09:43:04;101207.19;;;26.78;47.65
23433;BME280;41331;45.412;10.992;2023-05-27T09:45:33;101202.72;;;26.57;48.43
23433;BME280;41331;45.412;10.992;2023-05-27T09:48:01;101212.13;;;26.37;47.87
23433;BME280;41331;45.412;10.992;2023-05-27T09:50:30;101206.13;;;26.69;49.29
23433;BME280;41331;45.412;10.992;2023-05-27T09:52:58;101205.09;;;27.13;50.92
23433;BME280;41331;45.412;10.992;2023-05-27T09:55:39;101202.50;;;26.99;47.65
23433;BME280;41331;45.412;10.992;2023-05-27T09:58:09;101196.06;;;26.75;49.67
23433;BME280;41331;45.412;10.992;2023-05-27T10:00:38;101194.84;;;27.30;48.29
23433;BME280;41331;45.412;10.992;2023-05-27T10:03:08;101189.97;;;27.34;49.22
23433;BME280;41331;45.412;10.992;2023-05-27T10:05:38;101189.97;;;26.83;46.86
23433;BME280;41331;45.412;10.992;2023-05-27T10:08:06;101194.84;;;27.30;48.26
23433;BME280;41331;45.412;10.992;2023-05-27T10:10:50;101199.47;;;27.17;46.45
23433;BME280;41331;45.412;10.992;2023-05-27T10:13:19;101190.22;;;27.43;47.54
23433;BME280;41331;45.412;10.992;2023-05-27T10:15:51;101189.19;;;27.57;48.03
23433;BME280;41331;45.412;10.992;2023-05-27T10:18:42;101177.97;;;28.00;45.79
23433;BME280;41331;45.412;10.992;2023-05-27T10:21:09;101177.84;;;27.87;44.81
23433;BME280;41331;45.412;10.992;2023-05-27T10:23:36;101176.91;;;27.94;46.75
23433;BME280;41331;45.412;10.992;2023-05-27T10:26:08;101178.34;;;28.02;44.95
23433;BME280;41331;45.412;10.992;2023-05-27T10:28:37;101180.72;;;27.84;45.94
23433;BME280;41331;45.412;10.992;2023-05-27T10:31:10;101184.22;;;27.65;48.22
23433;BME280;41331;45.412;10.992;2023-05-27T10:33:49;101175.69;;;27.95;47.72
23433;BME280;41331;45.412;10.992;2023-05-27T10:36:25;101172.47;;;27.77;45.94
23433;BME280;41331;45.412;10.992;2023-05-27T10:39:01;101174.03;;;27.98;45.70
23433;BME280;41331;45.412;10.992;2023-05-27T10:41:49;101180.22;;;27.66;42.76
23433;BME280;41331;45.412;10.992;2023-05-27T10:44:36;101167.03;;;27.66;45.02
23433;BME280;41331;45.412;10.992;2023-05-27T10:47:09;101161.84;;;27.88;43.25
23433;BME280;41331;45.412;10.992;2023-05-27T10:49:38;101158.03;;;27.78;43.50
23433;BME280;41331;45.412;10.992;2023-05-27T10:52:17;101161.44;;;27.66;43.48
23433;BME280;41331;45.412;10.992;2023-05-27T10:54:46;101167.09;;;27.62;45.63
23433;BME280;41331;45.412;10.992;2023-05-27T10:57:16;101165.97;;;27.13;44.79
23433;BME280;41331;45.412;10.992;2023-05-27T10:59:51;101158.50;;;27.53;46.24
23433;BME280;41331;45.412;10.992;2023-05-27T11:02:30;101154.59;;;27.71;47.67
23433;BME280;41331;45.412;10.992;2023-05-27T11:05:13;101143.41;;;27.91;45.64
23433;BME280;41331;45.412;10.992;2023-05-27T11:07:42;101140.81;;;28.20;47.77
23433;BME280;41331;45.412;10.992;2023-05-27T11:10:09;101134.34;;;28.59;45.75
23433;BME280;41331;45.412;10.992;2023-05-27T11:12:37;101139.91;;;28.06;46.23
23433;BME280;41331;45.412;10.992;2023-05-27T11:15:04;101136.06;;;28.36;46.55
23433;BME280;41331;45.412;10.992;2023-05-27T11:17:32;101129.53;;;28.43;46.82
23433;BME280;41331;45.412;10.992;2023-05-27T11:20:01;101138.00;;;28.39;47.07
23433;BME280;41331;45.412;10.992;2023-05-27T11:22:35;101135.34;;;28.32;46.53
23433;BME280;41331;45.412;10.992;2023-05-27T11:25:04;101128.88;;;28.16;43.81
23433;BME280;41331;45.412;10.992;2023-05-27T11:27:35;101141.78;;;28.29;44.71
23433;BME280;41331;45.412;10.992;2023-05-27T11:30:08;101132.72;;;28.05;43.82
23433;BME280;41331;45.412;10.992;2023-05-27T11:32:40;101126.91;;;27.96;45.79
23433;BME280;41331;45.412;10.992;2023-05-27T11:35:17;101120.25;;;28.26;47.37
23433;BME280;41331;45.412;10.992;2023-05-27T11:37:49;101110.72;;;28.24;47.42
23433;BME280;41331;45.412;10.992;2023-05-27T11:40:18;101115.78;;;28.49;44.24
23433;BME280;41331;45.412;10.992;2023-05-27T11:42:45;101112.91;;;28.52;44.42
23433;BME280;41331;45.412;10.992;2023-05-27T11:45:16;101107.84;;;28.80;42.68
23433;BME280;41331;45.412;10.992;2023-05-27T11:47:45;101114.09;;;28.35;43.90
23433;BME280;41331;45.412;10.992;2023-05-27T11:50:17;101112.28;;;28.08;44.54
23433;BME280;41331;45.412;10.992;2023-05-27T11:52:55;101108.63;;;28.64;42.69
23433;BME280;41331;45.412;10.992;2023-05-27T11:55:23;101106.31;;;28.06;41.99
23433;BME280;41331;45.412;10.992;2023-05-27T11:57:51;101100.94;;;27.76;44.75
23433;BME280;41331;45.412;10.992;2023-05-27T12:00:18;101093.81;;;28.11;44.43
23433;BME280;41331;45.412;10.992;2023-05-27T12:02:46;101099.59;;;28.20;43.43
23433;BME280;41331;45.412;10.992;2023-05-27T12:05:15;101103.03;;;28.11;43.04
23433;BME280;41331;45.412;10.992;2023-05-27T12:08:00;101089.84;;;28.28;43.60
23433;BME280;41331;45.412;10.992;2023-05-27T12:10:27;101085.47;;;28.27;44.27
23433;BME280;41331;45.412;10.992;2023-05-27T12:13:04;101079.03;;;28.10;44.23
23433;BME280;41331;45.412;10.992;2023-05-27T12:15:32;101081.84;;;28.10;44.37
23433;BME280;41331;45.412;10.992;2023-05-27T12:18:01;101082.78;;;28.04;41.70
23433;BME280;41331;45.412;10.992;2023-05-27T12:20:29;101083.75;;;27.97;43.12
23433;BME280;41331;45.412;10.992;2023-05-27T12:22:56;101075.59;;;28.23;43.33
23433;BME280;41331;45.412;10.992;2023-05-27T12:25:24;101081.31;;;28.16;42.88
23433;BME280;41331;45.412;10.992;2023-05-27T12:27:51;101076.25;;;28.10;43.24
23433;BME280;41331;45.412;10.992;2023-05-27T12:30:19;101088.66;;;28.09;43.95
23433;BME280;41331;45.412;10.992;2023-05-27T12:32:46;101073.72;;;28.16;41.98
23433;BME280;41331;45.412;10.992;2023-05-27T12:35:15;101090.47;;;28.00;42.64
23433;BME280;41331;45.412;10.992;2023-05-27T12:37:43;101077.66;;;28.19;41.55
23433;BME280;41331;45.412;10.992;2023-05-27T12:40:11;101075.47;;;27.90;42.43
23433;BME280;41331;45.412;10.992;2023-05-27T12:42:41;101076.09;;;28.18;43.30
23433;BME280;41331;45.412;10.992;2023-05-27T12:45:09;101069.81;;;28.30;41.25
23433;BME280;41331;45.412;10.992;2023-05-27T12:47:40;101067.69;;;28.18;41.68
23433;BME280;41331;45.412;10.992;2023-05-27T12:50:07;101075.47;;;27.90;41.87
23433;BME280;41331;45.412;10.992;2023-05-27T12:52:35;101081.97;;;27.87;43.73
23433;BME280;41331;45.412;10.992;2023-05-27T12:55:03;101078.22;;;27.94;43.22
23433;BME280;41331;45.412;10.992;2023-05-27T12:57:30;101074.16;;;28.14;40.08